createdAt,value
2023-01-19T00:00:18.124Z,15.05
2023-01-19T00:02:26.073Z,15.65
2023-01-19T00:04:36.516Z,15.90
2023-01-19T00:06:44.314Z,15.73
2023-01-19T00:08:53.003Z,16.70
2023-01-19T00:11:01.212Z,15.80
2023-01-19T00:13:09.085Z,15.18
2023-01-19T00:15:17.055Z,16.05
2023-01-19T00:17:25.416Z,15.43
2023-01-19T00:19:33.564Z,15.30
2023-01-19T00:21:44.044Z,16.20
2023-01-19T00:23:52.903Z,15.50
2023-01-19T00:26:00.799Z,15.40
2023-01-19T00:28:09.032Z,16.50
2023-01-19T00:30:17.207Z,16.30
2023-01-19T00:32:24.996Z,17.13
2023-01-19T00:34:36.925Z,16.63
2023-01-19T00:36:47.458Z,16.95
2023-01-19T00:38:55.465Z,17.48
2023-01-19T00:41:03.966Z,16.40
2023-01-19T00:43:09.153Z,15.85
2023-01-19T00:45:18.743Z,16.00
2023-01-19T00:47:26.589Z,17.30
2023-01-19T00:49:34.551Z,15.35
2023-01-19T00:51:42.313Z,17.08
2023-01-19T00:53:52.762Z,17.67
2023-01-19T00:56:00.673Z,16.92
2023-01-19T00:58:09.896Z,17.08
2023-01-19T01:00:21.491Z,18.30
2023-01-19T01:02:30.089Z,17.98
2023-01-19T01:04:38.251Z,17.52
2023-01-19T01:06:46.125Z,16.80
2023-01-19T01:08:57.446Z,18.15
2023-01-19T01:11:05.369Z,18.98
2023-01-19T01:13:20.345Z,18.27
2023-01-19T01:15:30.643Z,18.77
2023-01-19T01:17:47.715Z,18.77
2023-01-19T01:19:57.231Z,16.98
2023-01-19T01:22:05.347Z,17.58
2023-01-19T01:24:16.418Z,16.40
2023-01-19T01:26:26.363Z,18.05
2023-01-19T01:28:35.310Z,17.48
2023-01-19T01:30:44.290Z,17.80
2023-01-19T01:32:52.977Z,16.83
2023-01-19T01:35:01.038Z,17.50
2023-01-19T01:37:09.856Z,17.55
2023-01-19T01:39:20.323Z,16.30
2023-01-19T01:41:28.928Z,16.50
2023-01-19T01:43:49.366Z,16.50
2023-01-19T01:45:58.033Z,15.75
2023-01-19T01:48:11.675Z,17.17
2023-01-19T01:50:22.744Z,15.35
2023-01-19T01:52:33.344Z,16.63
2023-01-19T01:54:45.513Z,16.77
2023-01-19T01:56:56.494Z,16.80
2023-01-19T01:59:08.166Z,16.92
2023-01-19T02:01:28.956Z,17.17
2023-01-19T02:03:37.664Z,16.90
2023-01-19T02:05:46.211Z,17.08
2023-01-19T02:08:12.471Z,18.23
2023-01-19T02:10:35.590Z,20.10
2023-01-19T02:12:55.713Z,18.88
2023-01-19T02:15:03.521Z,16.33
2023-01-19T02:17:11.403Z,19.02
2023-01-19T02:19:25.095Z,18.55
2023-01-19T02:21:39.720Z,18.40
2023-01-19T02:23:53.061Z,17.17
2023-01-19T02:26:02.626Z,17.73
2023-01-19T02:28:10.933Z,16.48
2023-01-19T02:30:19.775Z,17.63
2023-01-19T02:32:28.050Z,17.85
2023-01-19T02:34:36.029Z,16.70
2023-01-19T02:36:52.254Z,17.42
2023-01-19T02:39:04.935Z,17.45
2023-01-19T02:41:16.136Z,18.02
2023-01-19T02:43:25.482Z,17.20
2023-01-19T02:45:33.693Z,17.52
2023-01-19T02:47:42.695Z,16.83
2023-01-19T02:49:57.868Z,18.20
2023-01-19T02:52:06.177Z,17.23
2023-01-19T02:54:36.629Z,16.70
2023-01-19T02:56:56.426Z,15.07
2023-01-19T02:59:10.571Z,17.90
2023-01-19T03:01:28.136Z,17.02
2023-01-19T03:03:46.480Z,17.20
2023-01-19T03:06:01.734Z,18.15
2023-01-19T03:08:19.876Z,18.05
2023-01-19T03:10:39.277Z,17.38
2023-01-19T03:12:53.639Z,17.95
2023-01-19T03:15:11.074Z,18.13
2023-01-19T03:17:20.930Z,17.67
2023-01-19T03:19:32.458Z,18.23
2023-01-19T03:21:43.786Z,18.65
2023-01-19T03:23:53.090Z,19.00
2023-01-19T03:26:07.855Z,18.35
2023-01-19T03:28:17.515Z,17.98
2023-01-19T03:30:29.107Z,19.25
2023-01-19T03:32:41.163Z,16.40
2023-01-19T03:34:51.300Z,17.88
2023-01-19T03:37:03.421Z,17.75
2023-01-19T03:39:14.980Z,17.65
2023-01-19T03:41:27.026Z,19.55
2023-01-19T03:43:36.020Z,17.60
2023-01-19T03:45:44.971Z,19.00
2023-01-19T03:47:53.039Z,18.48
2023-01-19T03:50:01.621Z,17.90
2023-01-19T03:52:09.499Z,17.73
2023-01-19T03:54:18.891Z,17.27
2023-01-19T03:56:29.328Z,17.05
2023-01-19T03:58:37.522Z,17.63
2023-01-19T04:00:45.246Z,18.98
2023-01-19T04:02:53.193Z,17.83
2023-01-19T04:05:01.001Z,17.58
2023-01-19T04:07:09.005Z,18.63
2023-01-19T04:09:19.236Z,18.33
2023-01-19T04:11:30.061Z,19.33
2023-01-19T04:13:38.465Z,17.35
2023-01-19T04:15:46.439Z,18.48
2023-01-19T04:17:54.333Z,19.30
2023-01-19T04:20:02.233Z,18.90
2023-01-19T04:22:10.563Z,18.52
2023-01-19T04:24:18.672Z,17.73
2023-01-19T04:26:29.150Z,17.88
2023-01-19T04:28:38.114Z,17.85
2023-01-19T04:30:45.821Z,19.33
2023-01-19T04:32:55.528Z,18.73
2023-01-19T04:35:03.601Z,19.67
2023-01-19T04:37:11.579Z,18.35
2023-01-19T04:39:19.380Z,19.20
2023-01-19T04:41:31.127Z,20.77
2023-01-19T04:43:48.493Z,19.33
2023-01-19T04:45:56.908Z,18.30
2023-01-19T04:48:05.910Z,18.13
2023-01-19T04:50:15.287Z,18.58
2023-01-19T04:52:22.968Z,17.42
2023-01-19T04:54:30.804Z,19.08
2023-01-19T04:56:41.607Z,19.10
2023-01-19T04:58:49.618Z,17.35
2023-01-19T05:00:57.582Z,18.58
2023-01-19T05:03:06.098Z,18.38
2023-01-19T05:05:14.894Z,17.38
2023-01-19T05:07:22.859Z,19.40
2023-01-19T05:09:30.871Z,17.55
2023-01-19T05:11:41.621Z,19.45
2023-01-19T05:13:50.923Z,18.90
2023-01-19T05:15:59.616Z,17.35
2023-01-19T05:18:07.819Z,19.42
2023-01-19T05:20:17.517Z,17.30
2023-01-19T05:22:25.338Z,17.27
2023-01-19T05:24:33.193Z,18.45
2023-01-19T05:26:43.992Z,17.83
2023-01-19T05:28:51.826Z,17.25
2023-01-19T05:31:00.049Z,18.52
2023-01-19T05:33:08.066Z,18.50
2023-01-19T05:35:20.117Z,19.42
2023-01-19T05:37:32.991Z,18.15
2023-01-19T05:39:40.840Z,16.58
2023-01-19T05:41:51.657Z,18.15
2023-01-19T05:43:59.671Z,18.27
2023-01-19T05:46:07.858Z,17.65
2023-01-19T05:48:15.730Z,16.67
2023-01-19T05:50:23.651Z,17.02
2023-01-19T05:52:31.861Z,16.25
2023-01-19T05:54:40.688Z,18.58
2023-01-19T05:56:51.307Z,18.00
2023-01-19T05:58:59.502Z,15.85
2023-01-19T06:01:08.661Z,16.38
2023-01-19T06:03:16.821Z,17.92
2023-01-19T06:05:24.616Z,16.95
2023-01-19T06:07:32.753Z,18.42
2023-01-19T06:09:40.727Z,16.02
2023-01-19T06:11:54.199Z,17.20
2023-01-19T06:14:02.104Z,15.60
2023-01-19T06:16:11.904Z,16.25
2023-01-19T06:18:19.839Z,16.08
2023-01-19T06:20:27.722Z,14.73
2023-01-19T06:22:36.056Z,15.43
2023-01-19T06:24:44.319Z,16.42
2023-01-19T06:26:55.627Z,15.07
2023-01-19T06:29:03.985Z,14.57
2023-01-19T06:31:12.306Z,15.38
2023-01-19T06:33:20.862Z,15.57
2023-01-19T06:35:28.680Z,16.23
2023-01-19T06:37:36.862Z,16.65
2023-01-19T06:39:45.614Z,15.00
2023-01-19T06:41:56.122Z,16.70
2023-01-19T06:44:04.357Z,15.45
2023-01-19T06:46:12.454Z,17.60
2023-01-19T06:48:21.243Z,16.10
2023-01-19T06:50:29.786Z,16.58
2023-01-19T06:52:42.636Z,17.23
2023-01-19T06:54:50.696Z,16.92
2023-01-19T06:57:02.750Z,18.45
2023-01-19T06:59:11.430Z,17.73
2023-01-19T07:01:19.841Z,17.25
2023-01-19T07:03:27.803Z,18.33
2023-01-19T07:05:37.782Z,16.77
2023-01-19T07:07:45.958Z,18.23
2023-01-19T07:09:55.763Z,17.73
2023-01-19T07:12:07.107Z,17.40
2023-01-19T07:14:15.237Z,14.70
2023-01-19T07:16:26.962Z,16.63
2023-01-19T07:18:34.813Z,15.60
2023-01-19T07:20:44.410Z,14.00
2023-01-19T07:22:59.414Z,14.23
2023-01-19T07:25:08.254Z,14.45
2023-01-19T07:27:18.847Z,14.35
2023-01-19T07:29:26.914Z,14.73
2023-01-19T07:31:34.878Z,14.20
2023-01-19T07:33:42.879Z,14.00
2023-01-19T07:35:51.231Z,14.07
2023-01-19T07:37:59.315Z,15.45
2023-01-19T07:40:08.474Z,13.07
2023-01-19T07:42:19.448Z,13.15
2023-01-19T07:44:28.087Z,12.05
2023-01-19T07:46:36.349Z,11.95
2023-01-19T07:48:44.631Z,13.30
2023-01-19T07:50:52.524Z,12.25
2023-01-19T07:53:01.005Z,11.65
2023-01-19T07:55:10.604Z,12.43
2023-01-19T07:57:21.640Z,10.90
2023-01-19T07:59:30.573Z,11.73
2023-01-19T08:01:38.534Z,11.57
2023-01-19T08:03:46.942Z,11.63
2023-01-19T08:05:57.141Z,11.15
2023-01-19T08:08:05.686Z,10.93
2023-01-19T08:10:14.797Z,11.50
2023-01-19T08:12:25.550Z,12.02
2023-01-19T08:14:34.445Z,11.65
2023-01-19T08:16:42.276Z,14.82
2023-01-19T08:18:50.205Z,14.95
2023-01-19T08:20:58.285Z,14.50
2023-01-19T08:23:06.398Z,13.57
2023-01-19T08:25:14.376Z,13.63
2023-01-19T08:27:22.863Z,12.50
2023-01-19T08:29:35.257Z,12.70
2023-01-19T08:31:46.755Z,12.10
2023-01-19T08:33:57.326Z,13.20
2023-01-19T08:36:05.227Z,12.73
2023-01-19T08:38:14.159Z,12.65
2023-01-19T08:40:22.373Z,12.80
2023-01-19T08:42:30.918Z,11.68
2023-01-19T08:44:49.686Z,11.65
2023-01-19T08:47:04.994Z,9.45
2023-01-19T08:49:13.132Z,10.77
2023-01-19T08:51:21.666Z,10.23
2023-01-19T08:53:29.597Z,9.98
2023-01-19T08:55:40.555Z,9.43
2023-01-19T08:57:48.424Z,9.77
2023-01-19T08:59:59.323Z,9.40
2023-01-19T09:02:07.456Z,10.70
2023-01-19T09:04:15.749Z,9.07
2023-01-19T09:06:25.381Z,11.88
2023-01-19T09:08:33.191Z,11.57
2023-01-19T09:10:42.087Z,10.90
2023-01-19T09:12:50.551Z,10.27
2023-01-19T09:15:00.930Z,10.50
2023-01-19T09:17:09.473Z,9.02
2023-01-19T09:19:17.504Z,8.70
2023-01-19T09:21:25.461Z,8.15
2023-01-19T09:23:33.466Z,7.85
2023-01-19T09:25:41.940Z,7.25
2023-01-19T09:27:49.865Z,7.20
2023-01-19T09:30:00.159Z,7.20
2023-01-19T09:32:09.283Z,7.82
2023-01-19T09:34:17.297Z,7.18
2023-01-19T09:36:25.378Z,8.10
2023-01-19T09:38:34.292Z,7.35
2023-01-19T09:40:45.678Z,8.13
2023-01-19T09:43:02.093Z,7.55
2023-01-19T09:45:19.805Z,8.55
2023-01-19T09:47:31.378Z,7.63
2023-01-19T09:49:44.612Z,8.70
2023-01-19T09:51:54.115Z,8.38
2023-01-19T09:54:09.042Z,7.30
2023-01-19T09:56:20.839Z,8.57
2023-01-19T09:58:28.915Z,7.53
2023-01-19T10:00:40.744Z,7.05
2023-01-19T10:02:55.692Z,10.23
2023-01-19T10:05:05.328Z,9.30
2023-01-19T10:07:22.722Z,10.35
2023-01-19T10:09:37.806Z,10.48
2023-01-19T10:11:53.648Z,11.05
2023-01-19T10:14:02.360Z,10.52
2023-01-19T10:16:34.839Z,10.32
2023-01-19T10:18:51.642Z,9.75
2023-01-19T10:21:06.496Z,10.43
2023-01-19T10:23:27.911Z,8.60
2023-01-19T10:25:36.517Z,9.88
2023-01-19T10:27:44.529Z,9.43
2023-01-19T10:29:52.846Z,9.73
2023-01-19T10:32:10.008Z,9.38
2023-01-19T10:34:21.527Z,9.20
2023-01-19T10:36:37.637Z,9.80
2023-01-19T10:38:45.870Z,9.32
2023-01-19T10:41:00.693Z,8.18
2023-01-19T10:43:39.108Z,9.00
2023-01-19T10:45:53.352Z,6.72
2023-01-19T10:48:09.219Z,6.57
2023-01-19T10:50:28.883Z,6.05
2023-01-19T10:52:39.886Z,6.40
2023-01-19T10:54:49.753Z,5.90
2023-01-19T10:57:00.749Z,6.25
2023-01-19T10:59:10.658Z,6.35
2023-01-19T11:01:22.534Z,6.63
2023-01-19T11:03:35.085Z,5.40
2023-01-19T11:05:43.004Z,6.00
2023-01-19T11:07:52.205Z,5.90
2023-01-19T11:10:22.666Z,5.43
2023-01-19T11:12:30.928Z,6.35
2023-01-19T11:14:38.866Z,6.00
2023-01-19T11:16:51.031Z,7.50
2023-01-19T11:19:03.603Z,6.57
2023-01-19T11:21:15.145Z,7.10
2023-01-19T11:23:29.058Z,6.30
2023-01-19T11:25:39.415Z,6.85
2023-01-19T11:27:53.859Z,6.90
2023-01-19T11:30:10.538Z,6.32
2023-01-19T11:32:25.319Z,6.65
2023-01-19T11:34:38.756Z,6.95
2023-01-19T11:36:59.255Z,7.32
2023-01-19T11:39:28.187Z,7.15
2023-01-19T11:41:40.130Z,6.72
2023-01-19T11:43:49.741Z,6.72
2023-01-19T11:45:58.956Z,7.15
2023-01-19T11:48:09.260Z,7.60
2023-01-19T11:50:26.075Z,7.63
2023-01-19T11:52:39.591Z,7.50
2023-01-19T11:54:57.753Z,9.38
2023-01-19T11:57:13.042Z,7.60
2023-01-19T11:59:22.010Z,7.45
2023-01-19T12:01:34.883Z,7.00
2023-01-19T12:03:47.295Z,7.68
2023-01-19T12:06:04.549Z,7.10
2023-01-19T12:08:18.640Z,6.43
2023-01-19T12:10:31.247Z,8.07
2023-01-19T12:12:42.307Z,6.35
2023-01-19T12:14:58.649Z,7.55
2023-01-19T12:17:11.502Z,6.72
2023-01-19T12:19:23.883Z,6.40
2023-01-19T12:21:34.547Z,7.75
2023-01-19T12:23:51.075Z,6.93
2023-01-19T12:26:19.460Z,6.80
2023-01-19T12:28:33.510Z,7.72
2023-01-19T12:30:41.709Z,6.30
2023-01-19T12:32:51.599Z,6.82
2023-01-19T12:34:59.430Z,7.43
2023-01-19T12:37:30.911Z,7.57
2023-01-19T12:39:51.101Z,7.00
2023-01-19T12:42:10.650Z,7.03
2023-01-19T12:44:34.328Z,6.05
2023-01-19T12:46:46.052Z,6.47
2023-01-19T12:48:55.323Z,7.55
2023-01-19T12:51:03.271Z,7.55
2023-01-19T12:53:23.864Z,7.70
2023-01-19T12:55:34.503Z,7.43
2023-01-19T12:57:44.848Z,8.02
2023-01-19T12:59:59.343Z,6.85
2023-01-19T13:02:43.609Z,7.75
2023-01-19T13:05:17.438Z,7.88
2023-01-19T13:07:25.338Z,7.20
2023-01-19T13:09:37.174Z,7.20
2023-01-19T13:12:29.910Z,7.20
2023-01-19T13:14:39.486Z,7.25
2023-01-19T13:17:16.346Z,7.80
2023-01-19T13:19:35.677Z,6.60
2023-01-19T13:21:45.779Z,8.20
2023-01-19T13:23:58.157Z,7.85
2023-01-19T13:26:09.932Z,7.13
2023-01-19T13:28:21.104Z,7.70
2023-01-19T13:30:31.714Z,7.70
2023-01-19T13:32:39.919Z,8.52
2023-01-19T13:34:54.268Z,8.77
2023-01-19T13:37:02.941Z,7.45
2023-01-19T13:39:18.527Z,8.18
2023-01-19T13:41:32.186Z,8.25
2023-01-19T13:43:41.352Z,8.20
2023-01-19T13:45:53.543Z,8.50
2023-01-19T13:48:03.902Z,8.80
2023-01-19T13:50:23.328Z,8.07
2023-01-19T13:52:32.497Z,8.77
2023-01-19T13:54:40.665Z,9.77
2023-01-19T13:56:54.812Z,9.98
2023-01-19T13:59:23.320Z,9.43
2023-01-19T14:01:36.769Z,8.90
2023-01-19T14:03:46.549Z,7.72
2023-01-19T14:05:55.807Z,8.65
2023-01-19T14:08:05.952Z,7.97
2023-01-19T14:10:19.452Z,7.35
2023-01-19T14:12:29.901Z,8.07
2023-01-19T14:14:38.511Z,7.20
2023-01-19T14:16:46.409Z,7.72
2023-01-19T14:19:04.255Z,8.30
2023-01-19T14:21:14.955Z,8.32
2023-01-19T14:23:45.151Z,7.47
2023-01-19T14:25:53.237Z,8.73
2023-01-19T14:28:43.577Z,8.10
2023-01-19T14:31:21.463Z,8.45
2023-01-19T14:33:47.165Z,9.10
2023-01-19T14:35:55.352Z,12.15
2023-01-19T14:38:05.051Z,13.45
2023-01-19T14:40:22.183Z,11.63
2023-01-19T14:42:32.969Z,13.80
2023-01-19T14:44:42.528Z,11.10
2023-01-19T14:46:53.664Z,11.02
2023-01-19T14:49:07.123Z,12.60
2023-01-19T14:51:20.755Z,11.35
2023-01-19T14:53:30.376Z,10.60
2023-01-19T14:55:42.818Z,10.00
2023-01-19T14:57:51.190Z,11.02
2023-01-19T14:59:59.642Z,10.93
2023-01-19T15:02:12.027Z,10.52
2023-01-19T15:04:19.890Z,9.32
2023-01-19T15:06:28.816Z,8.68
2023-01-19T15:08:39.090Z,8.70
2023-01-19T15:10:47.210Z,9.57
2023-01-19T15:12:57.341Z,10.43
2023-01-19T15:15:05.938Z,8.82
2023-01-19T15:17:25.677Z,9.40
2023-01-19T15:19:33.860Z,10.13
2023-01-19T15:21:43.242Z,9.63
2023-01-19T15:23:51.543Z,9.23
2023-01-19T15:26:02.581Z,10.00
2023-01-19T15:28:17.651Z,9.68
2023-01-19T15:30:31.266Z,9.90
2023-01-19T15:32:43.994Z,10.02
2023-01-19T15:34:52.481Z,10.40
2023-01-19T15:37:00.617Z,10.65
2023-01-19T15:39:08.607Z,9.50
2023-01-19T15:41:17.743Z,10.07
2023-01-19T15:43:25.603Z,9.23
2023-01-19T15:45:41.793Z,8.77
2023-01-19T15:47:52.358Z,9.70
2023-01-19T15:50:00.246Z,9.20
2023-01-19T15:52:08.164Z,9.82
2023-01-19T15:54:17.268Z,9.40
2023-01-19T15:56:29.183Z,10.77
2023-01-19T15:58:37.285Z,10.45
2023-01-19T16:00:45.748Z,9.98
2023-01-19T16:02:56.539Z,10.50
2023-01-19T16:05:04.523Z,9.50
2023-01-19T16:07:12.822Z,9.70
2023-01-19T16:09:20.847Z,10.75
2023-01-19T16:11:29.587Z,9.45
2023-01-19T16:13:37.723Z,9.80
2023-01-19T16:15:45.774Z,10.48
2023-01-19T16:17:56.209Z,10.43
2023-01-19T16:20:04.182Z,10.82
2023-01-19T16:22:15.486Z,11.07
2023-01-19T16:24:23.207Z,10.80
2023-01-19T16:26:34.499Z,10.88
2023-01-19T16:28:42.675Z,11.10
2023-01-19T16:30:51.829Z,11.02
2023-01-19T16:33:02.370Z,11.98
2023-01-19T16:35:10.857Z,13.07
2023-01-19T16:37:18.840Z,12.95
2023-01-19T16:39:26.931Z,13.02
2023-01-19T16:41:35.788Z,16.05
2023-01-19T16:43:43.693Z,18.52
2023-01-19T16:46:02.879Z,26.00
2023-01-19T16:48:13.331Z,27.70
2023-01-19T16:50:21.746Z,25.73
2023-01-19T16:52:34.040Z,22.20
2023-01-19T16:54:45.219Z,21.42
2023-01-19T16:56:53.099Z,21.73
2023-01-19T16:59:03.138Z,22.63
2023-01-19T17:01:12.967Z,23.83
2023-01-19T17:03:23.581Z,26.17
2023-01-19T17:05:31.311Z,25.92
2023-01-19T17:07:39.092Z,21.25
2023-01-19T17:09:46.929Z,19.70
2023-01-19T17:11:54.927Z,18.77
2023-01-19T17:14:04.213Z,17.63
2023-01-19T17:16:12.451Z,17.02
2023-01-19T17:18:20.283Z,16.77
2023-01-19T17:20:30.835Z,17.38
2023-01-19T17:22:38.684Z,17.55
2023-01-19T17:24:46.523Z,17.65
2023-01-19T17:26:54.452Z,20.95
2023-01-19T17:29:03.207Z,18.13
2023-01-19T17:31:13.131Z,16.73
2023-01-19T17:33:21.413Z,16.35
2023-01-19T17:35:32.168Z,17.08
2023-01-19T17:37:40.078Z,16.30
2023-01-19T17:39:48.141Z,17.05
2023-01-19T17:41:55.998Z,15.25
2023-01-19T17:44:05.253Z,15.80
2023-01-19T17:46:13.790Z,15.88
2023-01-19T17:48:24.118Z,16.55
2023-01-19T17:50:35.154Z,15.45
2023-01-19T17:52:43.210Z,16.48
2023-01-19T17:54:51.040Z,16.98
2023-01-19T17:56:59.285Z,16.80
2023-01-19T17:59:08.486Z,15.35
2023-01-19T18:01:18.919Z,17.25
2023-01-19T18:03:27.078Z,16.77
2023-01-19T18:05:37.622Z,17.83
2023-01-19T18:07:45.691Z,18.65
2023-01-19T18:09:56.713Z,16.92
2023-01-19T18:12:04.473Z,16.55
2023-01-19T18:14:12.521Z,16.60
2023-01-19T18:16:23.601Z,16.15
2023-01-19T18:18:32.496Z,17.73
2023-01-19T18:20:44.664Z,16.73
2023-01-19T18:22:52.579Z,17.50
2023-01-19T18:25:01.813Z,17.20
2023-01-19T18:27:10.573Z,19.05
2023-01-19T18:29:20.594Z,23.95
2023-01-19T18:31:29.898Z,19.85
2023-01-19T18:33:37.862Z,17.55
2023-01-19T18:35:48.589Z,16.58
2023-01-19T18:37:57.093Z,17.10
2023-01-19T18:40:05.354Z,14.77
2023-01-19T18:42:13.241Z,14.20
2023-01-19T18:44:23.433Z,15.05
2023-01-19T18:46:31.375Z,19.92
2023-01-19T18:48:40.324Z,27.60
2023-01-19T18:50:51.212Z,32.50
2023-01-19T18:52:58.983Z,33.95
2023-01-19T18:55:07.407Z,35.05
2023-01-19T18:57:16.857Z,32.35
2023-01-19T18:59:24.849Z,29.52
2023-01-19T19:01:35.157Z,29.40
2023-01-19T19:03:43.029Z,34.00
2023-01-19T19:05:53.750Z,35.25
2023-01-19T19:08:02.690Z,33.65
2023-01-19T19:10:12.852Z,26.90
2023-01-19T19:12:21.048Z,26.50
2023-01-19T19:14:33.270Z,25.35
2023-01-19T19:16:41.160Z,23.98
2023-01-19T19:18:51.315Z,22.75
2023-01-19T19:21:01.788Z,22.00
2023-01-19T19:23:09.848Z,20.15
2023-01-19T19:25:18.519Z,20.70
2023-01-19T19:27:29.616Z,21.02
2023-01-19T19:29:37.692Z,20.80
2023-01-19T19:31:48.796Z,24.58
2023-01-19T19:34:00.308Z,22.35
2023-01-19T19:36:12.778Z,17.85
2023-01-19T19:38:20.859Z,16.10
2023-01-19T19:40:30.329Z,18.50
2023-01-19T19:42:40.273Z,17.52
2023-01-19T19:44:48.153Z,20.92
2023-01-19T19:46:56.114Z,20.38
2023-01-19T19:49:04.040Z,23.98
2023-01-19T19:51:18.780Z,22.30
2023-01-19T19:53:27.291Z,22.55
2023-01-19T19:55:36.220Z,21.15
2023-01-19T19:57:44.228Z,20.63
2023-01-19T19:59:52.016Z,19.85
2023-01-19T20:02:00.144Z,20.27
2023-01-19T20:04:09.837Z,19.27
2023-01-19T20:06:23.177Z,19.25
2023-01-19T20:08:31.223Z,19.85
2023-01-19T20:10:39.208Z,20.52
2023-01-19T20:12:47.342Z,20.02
2023-01-19T20:14:55.460Z,25.23
2023-01-19T20:17:06.389Z,23.75
2023-01-19T20:19:14.549Z,20.10
2023-01-19T20:21:27.962Z,19.60
2023-01-19T20:23:36.155Z,25.75
2023-01-19T20:25:44.004Z,24.95
2023-01-19T20:27:52.080Z,35.80
2023-01-19T20:30:00.488Z,20.15
2023-01-19T20:32:09.453Z,20.35
2023-01-19T20:34:20.174Z,31.65
2023-01-19T20:36:31.247Z,18.75
2023-01-19T20:38:40.056Z,18.95
2023-01-19T20:40:48.077Z,39.92
2023-01-19T20:42:56.071Z,18.80
2023-01-19T20:45:04.060Z,19.40
2023-01-19T20:47:12.639Z,17.52
2023-01-19T20:49:20.878Z,23.00
2023-01-19T20:51:31.683Z,16.02
2023-01-19T20:53:41.319Z,16.83
2023-01-19T20:55:49.490Z,16.02
2023-01-19T20:57:57.395Z,16.65
2023-01-19T21:00:05.491Z,17.38
2023-01-19T21:02:15.249Z,16.55
2023-01-19T21:04:25.087Z,16.15
2023-01-19T21:06:36.098Z,16.30
2023-01-19T21:08:44.250Z,16.88
2023-01-19T21:10:52.096Z,15.27
2023-01-19T21:13:00.153Z,16.55
2023-01-19T21:15:09.525Z,16.88
2023-01-19T21:17:17.444Z,20.83
2023-01-19T21:19:25.656Z,15.98
2023-01-19T21:21:36.714Z,15.82
2023-01-19T21:23:46.978Z,17.02
2023-01-19T21:25:56.535Z,18.58
2023-01-19T21:28:04.378Z,22.38
2023-01-19T21:30:15.558Z,22.30
2023-01-19T21:32:23.429Z,21.02
2023-01-19T21:34:31.357Z,20.13
2023-01-19T21:36:41.908Z,20.40
2023-01-19T21:38:50.750Z,20.30
2023-01-19T21:40:59.968Z,18.75
2023-01-19T21:43:07.835Z,19.73
2023-01-19T21:45:15.939Z,19.40
2023-01-19T21:47:23.764Z,18.48
2023-01-19T21:49:31.962Z,18.05
2023-01-19T21:51:42.123Z,18.10
2023-01-19T21:53:52.228Z,19.00
2023-01-19T21:56:00.600Z,19.30
2023-01-19T21:58:09.033Z,18.42
2023-01-19T22:00:17.412Z,17.30
2023-01-19T22:02:38.013Z,20.13
2023-01-19T22:04:46.539Z,17.20
2023-01-19T22:06:57.351Z,19.60
2023-01-19T22:09:05.558Z,20.90
2023-01-19T22:11:15.592Z,20.63
2023-01-19T22:13:24.599Z,21.58
2023-01-19T22:15:32.519Z,21.48
2023-01-19T22:17:40.278Z,18.92
2023-01-19T22:19:48.159Z,20.65
2023-01-19T22:21:58.645Z,19.25
2023-01-19T22:24:07.679Z,18.85
2023-01-19T22:26:32.178Z,19.77
2023-01-19T22:28:40.595Z,18.92
2023-01-19T22:30:48.578Z,20.50
2023-01-19T22:32:56.780Z,19.20
2023-01-19T22:35:04.614Z,19.17
2023-01-19T22:37:15.114Z,18.80
2023-01-19T22:39:22.949Z,19.75
2023-01-19T22:41:33.303Z,20.38
2023-01-19T22:43:41.555Z,20.20
2023-01-19T22:45:49.399Z,19.65
2023-01-19T22:47:57.158Z,19.70
2023-01-19T22:50:05.055Z,19.85
2023-01-19T22:52:15.432Z,20.60
2023-01-19T22:54:24.198Z,20.52
2023-01-19T22:56:36.110Z,20.38
2023-01-19T22:58:44.702Z,19.27
2023-01-19T23:00:52.672Z,20.90
2023-01-19T23:03:00.735Z,21.75
2023-01-19T23:05:10.142Z,24.15
2023-01-19T23:07:20.761Z,24.95
2023-01-19T23:09:28.671Z,24.30
2023-01-19T23:11:38.720Z,24.23
2023-01-19T23:13:49.236Z,22.25
2023-01-19T23:15:57.362Z,21.30
2023-01-19T23:18:05.296Z,20.35
2023-01-19T23:20:17.235Z,21.83
2023-01-19T23:22:27.958Z,20.48
2023-01-19T23:24:35.839Z,20.52
2023-01-19T23:26:43.812Z,19.52
2023-01-19T23:28:57.194Z,20.20
2023-01-19T23:31:16.371Z,19.55
2023-01-19T23:33:24.362Z,21.85
2023-01-19T23:35:32.292Z,23.77
2023-01-19T23:37:42.963Z,25.40
2023-01-19T23:39:50.699Z,25.50
2023-01-19T23:41:58.549Z,24.90
2023-01-19T23:44:07.780Z,23.73
2023-01-19T23:46:19.374Z,24.70
2023-01-19T23:48:27.309Z,24.70
2023-01-19T23:50:35.204Z,25.35
2023-01-19T23:52:45.639Z,26.42
2023-01-19T23:54:54.417Z,27.30
2023-01-19T23:57:02.412Z,25.80
2023-01-19T23:59:12.176Z,24.90
